Time;durP1;ratioP1;P1;durP2;ratioP2;P2;SDS_P1;SDS_P2;PMS_P1;PMS_P2;Temp;Humidity;BMP_temperature;BMP_pressure;BME280_temperature;BME280_humidity;BME280_pressure;Samples;Min_cycle;Max_cycle;Signal;HPM_P1;HPM_P2
2024/01/06 00:00:16;;;;;;;237.88;38.78;;;1.60;99.90;;;;;;5113861;27;20396;-87
2024/01/06 00:02:42;;;;;;;126.30;33.53;;;;;;;;;;5103015;27;20027;-86
2024/01/06 00:05:09;;;;;;;130.25;32.10;;;1.60;99.90;;;;;;5098599;27;20035;-86
2024/01/06 00:07:35;;;;;;;138.43;35.70;;;1.50;99.90;;;;;;5102717;27;20506;-84
2024/01/06 00:10:01;;;;;;;233.93;43.35;;;1.60;99.90;;;;;;5103563;27;20031;-88
2024/01/06 00:12:27;;;;;;;149.00;34.28;;;1.60;99.90;;;;;;5096281;28;20035;-87
2024/01/06 00:14:52;;;;;;;154.23;38.55;;;1.60;99.90;;;;;;5117880;28;20051;-88
2024/01/06 00:17:18;;;;;;;116.82;34.10;;;1.90;99.90;;;;;;5100363;28;20050;-88
2024/01/06 00:19:50;;;;;;;133.98;36.35;;;1.60;99.90;;;;;;5098909;28;20043;-88
2024/01/06 00:22:17;;;;;;;123.95;35.08;;;1.50;99.90;;;;;;5121786;27;20079;-88
2024/01/06 00:24:43;;;;;;;172.98;35.65;;;1.50;99.90;;;;;;5119207;27;20046;-88
2024/01/06 00:27:09;;;;;;;233.57;41.35;;;;;;;;;;5093276;27;20091;-88
2024/01/06 00:29:38;;;;;;;382.92;48.17;;;1.60;99.90;;;;;;5095956;28;20147;-88
2024/01/06 00:32:04;;;;;;;103.00;34.05;;;1.40;99.90;;;;;;5098703;27;20043;-88
2024/01/06 00:34:33;;;;;;;121.47;33.88;;;;;;;;;;5111359;27;20039;-88
2024/01/06 00:36:59;;;;;;;120.78;33.58;;;1.50;99.90;;;;;;5116545;27;20567;-87
2024/01/06 00:39:25;;;;;;;116.82;31.55;;;;;;;;;;5101144;27;20076;-88
2024/01/06 00:41:51;;;;;;;98.95;31.45;;;;;;;;;;5095689;27;20042;-88
2024/01/06 00:44:18;;;;;;;96.90;30.45;;;1.50;99.90;;;;;;5095924;27;20096;-87
2024/01/06 00:46:45;;;;;;;239.38;39.35;;;1.50;99.90;;;;;;5101346;27;20069;-87
2024/01/06 00:49:10;;;;;;;106.95;32.75;;;1.50;99.90;;;;;;5110108;27;20071;-87
2024/01/06 00:51:36;;;;;;;265.75;41.67;;;1.40;99.90;;;;;;5126219;27;20686;-86
2024/01/06 00:54:02;;;;;;;324.13;46.58;;;1.60;99.90;;;;;;5102527;27;20038;-87
2024/01/06 00:56:28;;;;;;;120.82;31.10;;;1.40;99.90;;;;;;5126093;27;20039;-88
2024/01/06 00:58:54;;;;;;;116.20;32.22;;;1.90;99.90;;;;;;5111290;27;20086;-87
2024/01/06 01:01:21;;;;;;;101.47;31.73;;;1.40;99.90;;;;;;5111943;27;20057;-86
2024/01/06 01:03:47;;;;;;;379.10;48.22;;;1.40;99.90;;;;;;5109165;27;20039;-87
2024/01/06 01:06:13;;;;;;;325.15;45.55;;;2.90;99.90;;;;;;5114503;27;20119;-87
2024/01/06 01:08:39;;;;;;;145.25;33.80;;;2.50;99.90;;;;;;5122911;27;20125;-87
2024/01/06 01:11:05;;;;;;;211.82;40.72;;;;;;;;;;5140728;27;20051;-88
2024/01/06 01:13:31;;;;;;;121.35;33.55;;;;;;;;;;5129380;27;20038;-87
2024/01/06 01:15:57;;;;;;;109.07;31.30;;;;;;;;;;5112258;27;20078;-86
2024/01/06 01:18:23;;;;;;;238.80;39.60;;;1.50;99.90;;;;;;5124909;27;20042;-86
2024/01/06 01:20:51;;;;;;;154.80;35.15;;;1.30;99.90;;;;;;5106284;27;20134;-86
2024/01/06 01:23:23;;;;;;;330.75;44.45;;;3.00;99.90;;;;;;5096321;27;20034;-86
2024/01/06 01:25:49;;;;;;;99.88;34.25;;;1.50;99.90;;;;;;5112494;27;20143;-86
2024/01/06 01:28:14;;;;;;;283.85;42.72;;;1.80;99.90;;;;;;5129292;27;20119;-88
2024/01/06 01:30:40;;;;;;;255.25;38.90;;;1.50;99.90;;;;;;5095561;27;20071;-85
2024/01/06 01:33:06;;;;;;;110.90;31.05;;;;;;;;;;5108849;27;20103;-87
2024/01/06 01:35:32;;;;;;;71.57;27.13;;;1.40;99.90;;;;;;5087508;27;20039;-85
2024/01/06 01:37:58;;;;;;;172.55;33.95;;;4.00;99.90;;;;;;5122348;27;20042;-84
2024/01/06 01:40:23;;;;;;;152.50;33.25;;;1.40;99.90;;;;;;5112096;27;20038;-86
2024/01/06 01:42:49;;;;;;;97.30;30.35;;;1.40;99.90;;;;;;5099961;27;20046;-86
2024/01/06 01:45:15;;;;;;;128.20;30.42;;;;;;;;;;5100345;27;20605;-86
2024/01/06 01:47:42;;;;;;;88.22;28.55;;;1.40;99.90;;;;;;5098196;27;20075;-86
2024/01/06 01:50:10;;;;;;;204.82;35.72;;;1.40;99.90;;;;;;5102243;27;20535;-85
2024/01/06 01:52:36;;;;;;;133.02;30.88;;;1.30;99.90;;;;;;5127253;27;20636;-85
2024/01/06 01:55:02;;;;;;;90.80;28.90;;;1.30;99.90;;;;;;5093433;27;20126;-86
2024/01/06 01:57:28;;;;;;;207.50;35.55;;;1.20;99.90;;;;;;5091082;27;20046;-85
2024/01/06 01:59:55;;;;;;;192.20;36.63;;;1.30;99.90;;;;;;5099747;27;20049;-86
2024/01/06 02:02:22;;;;;;;142.75;31.90;;;1.30;99.90;;;;;;5126991;27;20047;-86
2024/01/06 02:04:51;;;;;;;175.60;32.35;;;1.40;99.90;;;;;;5110455;27;20126;-86
2024/01/06 02:07:17;;;;;;;137.02;31.48;;;2.50;99.90;;;;;;5127455;27;20045;-86
2024/01/06 02:09:43;;;;;;;151.55;31.95;;;2.30;99.90;;;;;;5096204;27;20594;-85
2024/01/06 02:12:08;;;;;;;103.25;28.92;;;1.30;99.90;;;;;;5120775;27;20514;-84
2024/01/06 02:14:34;;;;;;;99.10;28.88;;;1.50;99.90;;;;;;5127413;27;20039;-85
2024/01/06 02:17:00;;;;;;;123.15;30.23;;;1.30;99.90;;;;;;5109628;27;20130;-84
2024/01/06 02:19:26;;;;;;;113.55;29.88;;;;;;;;;;5090618;27;20929;-84
2024/01/06 02:21:55;;;;;;;110.43;30.85;;;1.30;99.90;;;;;;5107023;27;20467;-85
2024/01/06 02:24:21;;;;;;;186.95;36.35;;;1.40;99.90;;;;;;5099990;27;20074;-85
2024/01/06 02:26:50;;;;;;;96.55;31.20;;;;;;;;;;5110050;27;20049;-86
2024/01/06 02:29:16;;;;;;;122.47;31.55;;;;;;;;;;5100113;27;20050;-85
2024/01/06 02:31:42;;;;;;;136.10;33.85;;;;;;;;;;5089836;27;20088;-84
2024/01/06 02:34:08;;;;;;;107.78;31.13;;;1.10;99.90;;;;;;5108308;27;20035;-82
2024/01/06 02:36:34;;;;;;;123.28;31.58;;;1.10;99.90;;;;;;5102740;27;20395;-86
2024/01/06 02:39:00;;;;;;;91.07;30.02;;;;;;;;;;5109351;27;20050;-85
2024/01/06 02:41:26;;;;;;;121.10;31.05;;;1.00;99.90;;;;;;5095885;27;20484;-84
2024/01/06 02:43:52;;;;;;;88.68;30.30;;;;;;;;;;5089025;27;20054;-84
2024/01/06 02:46:18;;;;;;;90.63;29.38;;;;;;;;;;5105853;27;20035;-86
2024/01/06 02:48:45;;;;;;;123.38;30.67;;;;;;;;;;5090522;27;20039;-84
2024/01/06 02:51:12;;;;;;;123.38;30.60;;;0.90;99.90;;;;;;5106183;27;20111;-84
2024/01/06 02:53:38;;;;;;;91.18;28.95;;;;;;;;;;5089570;27;20448;-85
2024/01/06 02:56:09;;;;;;;109.00;29.67;;;0.90;99.90;;;;;;5089148;27;20804;-85
2024/01/06 02:58:35;;;;;;;109.25;30.30;;;;;;;;;;5089109;27;20534;-86
2024/01/06 03:01:01;;;;;;;110.78;29.75;;;;;;;;;;5089228;27;20708;-85
2024/01/06 03:03:27;;;;;;;122.88;31.50;;;;;;;;;;5114735;27;20737;-86
2024/01/06 03:05:53;;;;;;;130.70;31.73;;;;;;;;;;5125511;27;20045;-84
2024/01/06 03:08:19;;;;;;;118.85;30.25;;;;;;;;;;5111915;27;20039;-84
2024/01/06 03:10:45;;;;;;;93.22;27.40;;;1.00;99.90;;;;;;5105555;27;20050;-84
2024/01/06 03:13:11;;;;;;;96.00;28.20;;;0.80;99.90;;;;;;5101430;27;20042;-85
2024/01/06 03:15:37;;;;;;;67.25;25.88;;;;;;;;;;5107993;27;20039;-83
2024/01/06 03:18:04;;;;;;;70.35;24.83;;;;;;;;;;5125753;27;20479;-85
2024/01/06 03:20:30;;;;;;;80.53;28.02;;;;;;;;;;5097649;27;20046;-85
2024/01/06 03:22:56;;;;;;;115.28;29.98;;;;;;;;;;5109658;27;20054;-84
2024/01/06 03:25:22;;;;;;;94.55;27.73;;;;;;;;;;5125501;27;20517;-83
2024/01/06 03:27:48;;;;;;;87.63;29.65;;;;;;;;;;5108390;27;20756;-83
2024/01/06 03:30:17;;;;;;;71.05;26.98;;;0.90;99.90;;;;;;5108238;27;20407;-84
2024/01/06 03:32:43;;;;;;;106.47;28.88;;;;;;;;;;5109209;27;20035;-84
2024/01/06 03:35:09;;;;;;;114.70;28.85;;;;;;;;;;5114050;27;20467;-83
2024/01/06 03:37:35;;;;;;;93.85;26.73;;;;;;;;;;5107922;27;20427;-85
2024/01/06 03:40:02;;;;;;;92.75;28.10;;;0.80;99.90;;;;;;5106640;28;20050;-84
2024/01/06 03:42:28;;;;;;;89.95;27.48;;;;;;;;;;5108618;27;20125;-85
2024/01/06 03:44:55;;;;;;;76.55;24.88;;;;;;;;;;5089935;27;20043;-85
2024/01/06 03:47:21;;;;;;;106.45;28.98;;;;;;;;;;5088486;27;20035;-85
2024/01/06 03:49:47;;;;;;;130.70;30.10;;;;;;;;;;5088026;27;20043;-83
2024/01/06 03:52:13;;;;;;;85.05;28.25;;;;;;;;;;5104839;27;20566;-84
2024/01/06 03:54:40;;;;;;;122.05;29.10;;;;;;;;;;5104357;27;20061;-83
2024/01/06 03:57:06;;;;;;;105.20;28.38;;;;;;;;;;5104943;27;20764;-84
2024/01/06 03:59:31;;;;;;;94.00;28.13;;;0.80;99.90;;;;;;5120451;27;20605;-83
2024/01/06 04:01:57;;;;;;;79.45;25.48;;;0.60;99.90;;;;;;5107856;27;20052;-83
2024/01/06 04:04:23;;;;;;;147.13;31.83;;;;;;;;;;5124551;27;20070;-83
2024/01/06 04:06:49;;;;;;;115.07;29.95;;;;;;;;;;5123656;27;20081;-84
2024/01/06 04:09:16;;;;;;;93.22;27.23;;;;;;;;;;5110236;27;20950;-83
2024/01/06 04:11:48;;;;;;;80.35;26.00;;;;;;;;;;5111579;27;20555;-82
2024/01/06 04:14:14;;;;;;;124.53;27.55;;;;;;;;;;5111369;27;20463;-83
2024/01/06 04:16:40;;;;;;;59.20;21.92;;;;;;;;;;5111681;27;20038;-84
2024/01/06 04:19:07;;;;;;;60.60;22.90;;;;;;;;;;5111748;27;20046;-84
2024/01/06 04:21:33;;;;;;;88.22;23.70;;;;;;;;;;5111343;27;20095;-83
2024/01/06 04:23:59;;;;;;;80.80;23.20;;;;;;;;;;5126026;27;20110;-83
2024/01/06 04:26:27;;;;;;;68.22;22.08;;;;;;;;;;5091620;27;21021;-84
2024/01/06 04:28:53;;;;;;;58.17;20.95;;;;;;;;;;5108785;27;20496;-85
2024/01/06 04:31:19;;;;;;;64.00;22.35;;;;;;;;;;5107396;27;20421;-84
2024/01/06 04:33:45;;;;;;;92.32;24.65;;;;;;;;;;5112063;27;20129;-83
2024/01/06 04:36:11;;;;;;;67.85;23.92;;;;;;;;;;5147191;27;20776;-82
2024/01/06 04:38:37;;;;;;;50.78;21.63;;;;;;;;;;5111779;27;20525;-83
2024/01/06 04:41:03;;;;;;;66.72;22.67;;;;;;;;;;5128204;27;20048;-84
2024/01/06 04:43:29;;;;;;;62.67;21.63;;;;;;;;;;5110982;27;20117;-83
2024/01/06 04:45:57;;;;;;;73.85;23.20;;;;;;;;;;5111253;27;20454;-84
2024/01/06 04:48:24;;;;;;;55.25;21.92;;;;;;;;;;5127939;27;20745;-84
2024/01/06 04:50:50;;;;;;;74.63;21.88;;;;;;;;;;5100922;27;20450;-83
2024/01/06 04:53:16;;;;;;;65.32;21.15;;;;;;;;;;5091926;27;20104;-83
2024/01/06 04:55:42;;;;;;;70.60;22.20;;;;;;;;;;5109000;27;20777;-83
2024/01/06 04:58:08;;;;;;;72.28;22.73;;;;;;;;;;5110401;27;20116;-83
2024/01/06 05:00:36;;;;;;;104.82;25.40;;;;;;;;;;5120364;27;20066;-83
2024/01/06 05:03:02;;;;;;;119.28;27.90;;;;;;;;;;5115260;27;20134;-83
2024/01/06 05:05:28;;;;;;;135.40;28.55;;;;;;;;;;5110299;27;20038;-83
2024/01/06 05:07:54;;;;;;;94.15;24.67;;;;;;;;;;5121271;27;20072;-83
2024/01/06 05:10:20;;;;;;;113.15;26.67;;;;;;;;;;5108023;27;20039;-83
2024/01/06 05:12:46;;;;;;;102.32;25.17;;;;;;;;;;5090975;27;20161;-82
2024/01/06 05:15:12;;;;;;;91.45;24.83;;;;;;;;;;5091179;27;20035;-83
2024/01/06 05:17:38;;;;;;;98.07;25.95;;;;;;;;;;5095285;27;20141;-83
2024/01/06 05:20:05;;;;;;;92.60;25.05;;;0.30;99.90;;;;;;5145459;27;20051;-83
2024/01/06 05:22:31;;;;;;;95.82;24.08;;;;;;;;;;5109967;27;20488;-84
2024/01/06 05:24:57;;;;;;;128.13;27.23;;;;;;;;;;5110358;27;20074;-82
2024/01/06 05:27:23;;;;;;;87.97;25.05;;;;;;;;;;5109240;27;20453;-83
2024/01/06 05:29:51;;;;;;;110.57;27.17;;;;;;;;;;5123137;27;20516;-86
2024/01/06 05:32:17;;;;;;;79.88;24.02;;;;;;;;;;5099719;27;20046;-85
2024/01/06 05:34:44;;;;;;;77.63;22.42;;;;;;;;;;5112339;27;20042;-85
2024/01/06 05:37:10;;;;;;;73.05;24.33;;;;;;;;;;5121758;27;20057;-84
2024/01/06 05:39:39;;;;;;;82.85;24.00;;;0.50;99.90;;;;;;5107971;27;20039;-84
2024/01/06 05:42:05;;;;;;;87.50;24.08;;;0.50;99.90;;;;;;5112923;27;20490;-82
2024/01/06 05:44:32;;;;;;;61.05;21.48;;;;;;;;;;5126736;27;20039;-85
2024/01/06 05:46:58;;;;;;;64.75;22.67;;;;;;;;;;5126799;27;20113;-84
2024/01/06 05:49:24;;;;;;;59.03;23.02;;;;;;;;;;5109056;27;20070;-83
2024/01/06 05:51:50;;;;;;;81.93;24.42;;;;;;;;;;5099595;27;20492;-82
2024/01/06 05:54:16;;;;;;;72.13;23.73;;;;;;;;;;5089550;27;20047;-83
2024/01/06 05:56:42;;;;;;;52.40;21.60;;;;;;;;;;5115548;27;20423;-83
2024/01/06 05:59:08;;;;;;;73.60;24.40;;;;;;;;;;5127009;27;20260;-82
2024/01/06 06:01:35;;;;;;;53.63;21.80;;;;;;;;;;5109493;27;20046;-82
2024/01/06 06:04:01;;;;;;;64.07;22.70;;;;;;;;;;5106551;27;20051;-82
2024/01/06 06:06:27;;;;;;;69.65;23.20;;;;;;;;;;5095384;27;20041;-83
2024/01/06 06:08:53;;;;;;;61.22;22.58;;;;;;;;;;5126475;27;20354;-83
2024/01/06 06:11:19;;;;;;;55.67;21.75;;;;;;;;;;5126776;27;20053;-84
2024/01/06 06:13:45;;;;;;;113.03;27.65;;;;;;;;;;5110122;27;20039;-83
2024/01/06 06:16:14;;;;;;;67.20;22.60;;;;;;;;;;5123264;27;20108;-83
2024/01/06 06:18:40;;;;;;;50.55;21.48;;;0.30;99.90;;;;;;5090257;27;20075;-83
2024/01/06 06:21:10;;;;;;;74.18;24.63;;;0.40;99.90;;;;;;5089235;27;20580;-83
2024/01/06 06:23:36;;;;;;;56.40;21.20;;;;;;;;;;5089327;27;20046;-82
2024/01/06 06:26:06;;;;;;;66.05;23.80;;;0.40;99.90;;;;;;5089383;27;20111;-81
2024/01/06 06:28:33;;;;;;;67.35;23.25;;;;;;;;;;5089597;27;20126;-83
2024/01/06 06:30:59;;;;;;;45.55;20.38;;;;;;;;;;5088174;27;20043;-82
2024/01/06 06:33:25;;;;;;;56.92;22.38;;;;;;;;;;5089029;27;20042;-81
2024/01/06 06:35:51;;;;;;;63.50;21.85;;;;;;;;;;5124480;27;20039;-82
2024/01/06 06:38:18;;;;;;;42.33;19.73;;;;;;;;;;5099063;27;20484;-81
2024/01/06 06:40:43;;;;;;;60.38;23.60;;;0.40;99.90;;;;;;5108933;27;20034;-83
2024/01/06 06:43:10;;;;;;;55.72;23.02;;;;;;;;;;5108271;27;20430;-82
2024/01/06 06:45:36;;;;;;;56.40;21.10;;;;;;;;;;5107817;27;20058;-82
2024/01/06 06:48:02;;;;;;;52.72;22.23;;;;;;;;;;5104449;27;20050;-82
2024/01/06 06:50:28;;;;;;;78.30;24.90;;;;;;;;;;5089181;27;20084;-83
2024/01/06 06:52:54;;;;;;;44.08;19.60;;;;;;;;;;5088863;27;20042;-83
2024/01/06 06:55:20;;;;;;;67.75;24.02;;;;;;;;;;5088846;27;20492;-82
2024/01/06 06:57:47;;;;;;;41.42;20.30;;;;;;;;;;5087861;27;20047;-83
2024/01/06 07:00:14;;;;;;;41.30;19.58;;;;;;;;;;5102166;27;20059;-83
2024/01/06 07:02:41;;;;;;;52.28;22.70;;;;;;;;;;5107515;27;20046;-83
2024/01/06 07:05:07;;;;;;;55.60;21.55;;;0.30;99.90;;;;;;5124959;27;20182;-83
2024/01/06 07:07:36;;;;;;;46.50;20.73;;;0.30;99.90;;;;;;5107131;27;20122;-82
2024/01/06 07:10:04;;;;;;;50.78;21.90;;;0.30;99.90;;;;;;5108575;27;20066;-81
2024/01/06 07:12:31;;;;;;;41.33;18.58;;;0.30;99.90;;;;;;5125084;27;20102;-81
2024/01/06 07:15:00;;;;;;;57.10;22.02;;;;;;;;;;5108220;27;20049;-81
2024/01/06 07:17:26;;;;;;;39.92;18.90;;;;;;;;;;5125652;27;20786;-83
2024/01/06 07:19:53;;;;;;;54.85;20.35;;;;;;;;;;5125688;27;20107;-81
2024/01/06 07:22:20;;;;;;;48.13;20.65;;;;;;;;;;5110065;27;20051;-82
2024/01/06 07:24:46;;;;;;;48.28;20.08;;;;;;;;;;5091337;27;20043;-82
2024/01/06 07:27:12;;;;;;;55.00;20.35;;;;;;;;;;5105320;27;20046;-81
2024/01/06 07:29:38;;;;;;;47.45;20.75;;;;;;;;;;5126084;27;20092;-81
2024/01/06 07:32:06;;;;;;;45.97;20.05;;;0.70;99.90;;;;;;5110594;27;20104;-81
2024/01/06 07:34:32;;;;;;;32.90;17.63;;;;;;;;;;5105118;27;20555;-81
2024/01/06 07:37:01;;;;;;;46.97;19.77;;;0.30;99.90;;;;;;5105507;27;20043;-83
2024/01/06 07:39:27;;;;;;;53.88;20.70;;;;;;;;;;5088447;27;20085;-82
2024/01/06 07:41:53;;;;;;;34.10;18.88;;;;;;;;;;5087085;27;20749;-83
2024/01/06 07:44:24;;;;;;;35.20;19.13;;;;;;;;;;5124702;27;20605;-82
2024/01/06 07:46:51;;;;;;;28.60;16.58;;;;;;;;;;5102734;27;20484;-82
2024/01/06 07:49:17;;;;;;;38.80;20.20;;;;;;;;;;5105549;27;20067;-82
2024/01/06 07:51:46;;;;;;;59.83;21.27;;;;;;;;;;5093267;27;20472;-82
2024/01/06 07:54:12;;;;;;;40.53;18.55;;;;;;;;;;5107479;27;20039;-81
2024/01/06 07:56:39;;;;;;;36.50;17.42;;;;;;;;;;5124687;27;20063;-82
2024/01/06 07:59:05;;;;;;;35.67;17.33;;;;;;;;;;5124615;27;20046;-83
2024/01/06 08:01:31;;;;;;;73.95;21.85;;;;;;;;;;5095888;27;20721;-82
2024/01/06 08:03:58;;;;;;;47.50;20.60;;;;;;;;;;5107005;27;20035;-82
2024/01/06 08:06:25;;;;;;;62.22;21.67;;;0.10;99.90;;;;;;5107397;27;20674;-83
2024/01/06 08:08:51;;;;;;;46.67;20.13;;;;;;;;;;5106536;27;20503;-82
2024/01/06 08:11:17;;;;;;;41.42;19.00;;;;;;;;;;5124418;27;20082;-81
2024/01/06 08:13:43;;;;;;;47.30;19.48;;;0.20;99.90;;;;;;5107817;27;20074;-82
2024/01/06 08:16:09;;;;;;;45.05;20.17;;;;;;;;;;5107174;27;20056;-81
2024/01/06 08:18:35;;;;;;;41.08;19.52;;;;;;;;;;5124319;27;20042;-84
2024/01/06 08:21:02;;;;;;;38.72;19.38;;;;;;;;;;5107562;27;20579;-84
2024/01/06 08:23:28;;;;;;;53.58;21.30;;;;;;;;;;5107443;27;20479;-83
2024/01/06 08:25:54;;;;;;;46.42;22.27;;;0.40;99.90;;;;;;5090365;27;20043;-83
2024/01/06 08:28:23;;;;;;;40.83;20.05;;;;;;;;;;5087178;27;20041;-82
2024/01/06 08:30:49;;;;;;;38.47;19.80;;;;;;;;;;5086882;27;20050;-81
2024/01/06 08:33:18;;;;;;;47.97;21.88;;;0.30;99.90;;;;;;5104188;27;20043;-82
2024/01/06 08:35:44;;;;;;;64.70;23.52;;;0.30;99.90;;;;;;5087808;27;20051;-82
2024/01/06 08:38:10;;;;;;;45.60;22.42;;;;;;;;;;5087827;27;20071;-83
2024/01/06 08:40:36;;;;;;;45.03;21.83;;;;;;;;;;5104793;27;20039;-83
2024/01/06 08:43:03;;;;;;;48.83;21.05;;;0.40;99.90;;;;;;5087069;28;20039;-81
2024/01/06 08:45:29;;;;;;;51.47;22.08;;;;;;;;;;5122385;27;20049;-82
2024/01/06 08:47:58;;;;;;;46.72;21.52;;;;;;;;;;5123399;27;20130;-81
2024/01/06 08:50:24;;;;;;;40.67;20.48;;;;;;;;;;5106693;27;20034;-81
2024/01/06 08:52:50;;;;;;;64.15;22.60;;;;;;;;;;5102032;28;20050;-84
2024/01/06 08:55:17;;;;;;;42.05;19.52;;;;;;;;;;5105972;27;20047;-82
2024/01/06 08:57:43;;;;;;;35.83;19.50;;;;;;;;;;5091075;27;20035;-82
2024/01/06 09:00:10;;;;;;;43.70;20.98;;;;;;;;;;5108166;27;20238;-82
2024/01/06 09:02:36;;;;;;;46.95;21.20;;;;;;;;;;5095347;27;20039;-82
2024/01/06 09:05:03;;;;;;;41.65;20.80;;;;;;;;;;5090510;27;20827;-82
2024/01/06 09:07:30;;;;;;;45.67;22.98;;;;;;;;;;5090936;27;20039;-81
2024/01/06 09:09:56;;;;;;;46.63;22.73;;;;;;;;;;5108674;27;20051;-81
2024/01/06 09:12:22;;;;;;;53.88;22.70;;;;;;;;;;5110022;27;20046;-82
2024/01/06 09:14:48;;;;;;;53.13;23.38;;;;;;;;;;5102254;27;20065;-82
2024/01/06 09:17:14;;;;;;;57.67;23.27;;;;;;;;;;5108864;27;20103;-82
2024/01/06 09:19:41;;;;;;;58.10;23.23;;;;;;;;;;5091188;27;20075;-82
2024/01/06 09:22:07;;;;;;;45.15;22.20;;;;;;;;;;5095921;27;20070;-82
2024/01/06 09:24:33;;;;;;;51.30;22.98;;;;;;;;;;5114778;27;20035;-83
2024/01/06 09:26:59;;;;;;;64.32;23.38;;;;;;;;;;5084540;27;20104;-82
2024/01/06 09:29:25;;;;;;;56.88;23.05;;;;;;;;;;5110849;27;20452;-82
2024/01/06 09:31:52;;;;;;;64.18;24.50;;;;;;;;;;5094240;27;20112;-82
2024/01/06 09:34:18;;;;;;;51.80;23.35;;;;;;;;;;5089347;27;20623;-82
2024/01/06 09:36:44;;;;;;;65.97;25.20;;;;;;;;;;5089186;27;20043;-82
2024/01/06 09:39:10;;;;;;;53.80;23.30;;;;;;;;;;5082535;27;20515;-83
2024/01/06 09:41:36;;;;;;;53.75;23.65;;;;;;;;;;5102851;27;20491;-82
2024/01/06 09:44:02;;;;;;;54.85;24.23;;;;;;;;;;5079991;28;20035;-83
2024/01/06 09:46:29;;;;;;;48.33;23.50;;;;;;;;;;5100554;27;20040;-81
2024/01/06 09:48:56;;;;;;;55.67;25.10;;;0.70;99.90;;;;;;5094472;27;20146;-81
2024/01/06 09:51:23;;;;;;;57.38;24.23;;;;;;;;;;5098058;27;20429;-83
2024/01/06 09:53:56;;;;;;;46.00;22.58;;;0.80;99.90;;;;;;5087678;27;20039;-83
2024/01/06 09:56:24;;;;;;;53.83;23.70;;;0.80;99.90;;;;;;5107545;27;20172;-85
2024/01/06 09:58:54;;;;;;;55.20;24.02;;;0.80;99.90;;;;;;5090021;27;20081;-83
2024/01/06 10:01:20;;;;;;;48.83;23.75;;;;;;;;;;5094936;27;20495;-84
2024/01/06 10:03:46;;;;;;;55.00;23.85;;;;;;;;;;5106825;27;20098;-82
2024/01/06 10:06:14;;;;;;;56.42;24.38;;;0.80;99.90;;;;;;5089079;27;20519;-82
2024/01/06 10:08:49;;;;;;;47.88;22.08;;;0.90;99.90;;;;;;5106990;27;20142;-84
2024/01/06 10:11:15;;;;;;;50.95;23.67;;;;;;;;;;5108803;27;20030;-80
2024/01/06 10:13:41;;;;;;;46.22;23.42;;;;;;;;;;5088492;27;20474;-81
2024/01/06 10:16:10;;;;;;;44.08;22.45;;;0.90;99.90;;;;;;5088901;27;20086;-82
2024/01/06 10:18:36;;;;;;;51.90;22.85;;;;;;;;;;5076166;27;20123;-81
2024/01/06 10:21:06;;;;;;;43.90;24.15;;;1.00;99.90;;;;;;5074342;27;20370;-81
2024/01/06 10:23:33;;;;;;;56.10;24.05;;;1.00;99.90;;;;;;5077102;27;20038;-81
2024/01/06 10:26:02;;;;;;;43.20;21.77;;;;;;;;;;5073709;27;20105;-81
2024/01/06 10:28:29;;;;;;;44.35;22.45;;;;;;;;;;5069975;27;20039;-83
2024/01/06 10:30:56;;;;;;;54.92;22.63;;;;;;;;;;5098523;27;20068;-82
2024/01/06 10:33:26;;;;;;;41.83;20.85;;;;;;;;;;5089931;27;20043;-82
2024/01/06 10:35:56;;;;;;;43.05;20.65;;;;;;;;;;5097740;27;20096;-81
2024/01/06 10:38:22;;;;;;;37.55;20.83;;;;;;;;;;5105965;27;20050;-82
2024/01/06 10:41:07;;;;;;;39.33;20.45;;;;;;;;;;5088687;27;20046;-80
2024/01/06 10:43:40;;;;;;;47.40;21.92;;;1.00;99.90;;;;;;5082926;27;20047;-84
2024/01/06 10:46:10;;;;;;;60.53;23.73;;;;;;;;;;5088651;27;20778;-81
2024/01/06 10:48:38;;;;;;;49.33;21.60;;;;;;;;;;5088397;27;20091;-81
2024/01/06 10:51:07;;;;;;;46.55;21.80;;;;;;;;;;5088416;27;20031;-82
2024/01/06 10:53:37;;;;;;;59.47;23.48;;;;;;;;;;5088461;27;20084;-80
2024/01/06 10:56:03;;;;;;;46.75;21.55;;;;;;;;;;5087739;27;20042;-82
2024/01/06 10:58:32;;;;;;;45.28;22.52;;;1.00;99.90;;;;;;5088379;27;20049;-84
2024/01/06 11:00:58;;;;;;;41.38;21.50;;;;;;;;;;5087948;27;20138;-80
2024/01/06 11:03:25;;;;;;;37.10;20.02;;;1.10;99.90;;;;;;5093471;27;20047;-81
2024/01/06 11:05:51;;;;;;;41.03;21.73;;;;;;;;;;5104676;27;20055;-83
2024/01/06 11:08:18;;;;;;;41.65;23.55;;;;;;;;;;5109483;27;20584;-84
2024/01/06 11:10:45;;;;;;;41.03;22.52;;;;;;;;;;5094674;27;20039;-83
2024/01/06 11:13:22;;;;;;;36.95;21.33;;;1.20;99.90;;;;;;5087736;27;20670;-81
2024/01/06 11:15:51;;;;;;;38.72;20.25;;;1.10;99.90;;;;;;5095991;27;20082;-80
2024/01/06 11:18:38;;;;;;;40.83;22.10;;;1.20;99.90;;;;;;5105611;27;20050;-82
2024/01/06 11:21:17;;;;;;;35.45;19.27;;;;;;;;;;5126171;27;20082;-82
2024/01/06 11:23:44;;;;;;;38.55;20.80;;;;;;;;;;5099645;27;20671;-80
2024/01/06 11:26:11;;;;;;;36.25;19.77;;;;;;;;;;5087238;27;20046;-83
2024/01/06 11:28:52;;;;;;;32.35;19.33;;;1.10;99.90;;;;;;5088803;27;20046;-82
2024/01/06 11:31:19;;;;;;;37.97;19.58;;;;;;;;;;5109582;27;20122;-84
2024/01/06 11:33:48;;;;;;;34.47;21.50;;;1.00;99.90;;;;;;5095227;27;20104;-83
2024/01/06 11:36:19;;;;;;;39.83;22.00;;;1.10;99.90;;;;;;5106965;27;20049;-82
2024/01/06 11:38:50;;;;;;;33.47;19.45;;;1.00;99.90;;;;;;5115703;27;20045;-81
2024/01/06 11:41:44;;;;;;;40.03;21.23;;;1.10;99.90;;;;;;5087119;27;20156;-81
2024/01/06 11:44:11;;;;;;;39.00;21.63;;;;;;;;;;5092360;28;20131;-82
2024/01/06 11:46:37;;;;;;;40.15;21.73;;;;;;;;;;5094219;27;20051;-82
2024/01/06 11:49:07;;;;;;;34.22;20.05;;;1.10;99.90;;;;;;5103526;27;20047;-82
2024/01/06 11:51:34;;;;;;;37.13;20.33;;;;;;;;;;5103771;27;20085;-82
2024/01/06 11:54:00;;;;;;;32.13;20.58;;;;;;;;;;5115920;27;20035;-81
2024/01/06 11:56:26;;;;;;;38.88;21.80;;;;;;;;;;5105593;27;20770;-82
2024/01/06 11:58:52;;;;;;;38.85;21.92;;;;;;;;;;5090424;27;20043;-83
2024/01/06 12:01:18;;;;;;;43.60;22.55;;;;;;;;;;5090224;28;20829;-81
2024/01/06 12:03:44;;;;;;;35.60;22.10;;;;;;;;;;5086104;28;20039;-83
2024/01/06 12:06:11;;;;;;;37.67;21.83;;;;;;;;;;5093138;27;20042;-81
2024/01/06 12:08:37;;;;;;;40.80;21.67;;;;;;;;;;5106623;28;20042;-83
2024/01/06 12:11:04;;;;;;;39.38;21.75;;;0.50;99.90;;;;;;5111958;28;20384;-84
2024/01/06 12:13:30;;;;;;;32.85;18.92;;;;;;;;;;5088482;28;20716;-82
2024/01/06 12:15:56;;;;;;;32.40;19.25;;;;;;;;;;5088097;27;20511;-86
2024/01/06 12:18:24;;;;;;;33.10;19.42;;;;;;;;;;5097966;27;20039;-84
2024/01/06 12:20:51;;;;;;;37.13;20.83;;;0.80;99.90;;;;;;5108043;27;20047;-82
2024/01/06 12:23:27;;;;;;;34.80;21.08;;;0.80;99.90;;;;;;5094213;27;20508;-85
2024/01/06 12:25:54;;;;;;;36.75;22.33;;;;;;;;;;5085819;27;20035;-81
2024/01/06 12:28:20;;;;;;;37.08;21.33;;;0.80;99.90;;;;;;5088072;27;20376;-82
2024/01/06 12:30:46;;;;;;;37.90;21.88;;;;;;;;;;5108174;27;20046;-84
2024/01/06 12:33:14;;;;;;;34.13;20.73;;;;;;;;;;5099081;27;20042;-82
2024/01/06 12:35:41;;;;;;;35.80;20.77;;;;;;;;;;5091900;27;20532;-84
2024/01/06 12:38:09;;;;;;;39.63;22.15;;;0.80;99.90;;;;;;5114966;27;20066;-82
2024/01/06 12:40:38;;;;;;;38.58;21.95;;;0.80;99.90;;;;;;5108060;27;20054;-81
2024/01/06 12:43:05;;;;;;;38.83;21.92;;;0.80;99.90;;;;;;5089543;27;20043;-81
2024/01/06 12:45:31;;;;;;;40.72;22.60;;;;;;;;;;5108917;27;20043;-81
2024/01/06 12:47:57;;;;;;;40.72;21.65;;;;;;;;;;5098784;27;20667;-82
2024/01/06 12:50:23;;;;;;;38.13;21.25;;;;;;;;;;5095979;27;20038;-82
2024/01/06 12:52:49;;;;;;;36.85;22.13;;;;;;;;;;5115340;27;20062;-80
2024/01/06 12:55:16;;;;;;;41.15;21.75;;;;;;;;;;5090825;27;20047;-83
2024/01/06 12:57:42;;;;;;;33.72;20.27;;;0.80;99.90;;;;;;5100343;27;21001;-83
2024/01/06 13:00:11;;;;;;;35.53;21.00;;;0.20;99.90;;;;;;5089299;27;20046;-81
2024/01/06 13:02:38;;;;;;;35.40;21.63;;;;;;;;;;5090706;27;20621;-82
2024/01/06 13:05:04;;;;;;;34.92;20.88;;;0.80;99.90;;;;;;5104139;27;20656;-84
2024/01/06 13:07:31;;;;;;;34.40;19.98;;;;;;;;;;5115427;27;20599;-82
2024/01/06 13:09:57;;;;;;;40.80;21.48;;;;;;;;;;5111091;27;20406;-81
2024/01/06 13:12:24;;;;;;;35.55;20.27;;;;;;;;;;5108314;27;20035;-82
2024/01/06 13:14:50;;;;;;;36.58;21.58;;;;;;;;;;5091342;27;20426;-81
2024/01/06 13:17:20;;;;;;;38.97;20.75;;;;;;;;;;5096615;27;20430;-81
2024/01/06 13:19:46;;;;;;;34.58;20.63;;;0.70;99.90;;;;;;5105455;27;20054;-81
2024/01/06 13:22:13;;;;;;;32.50;20.05;;;;;;;;;;5090493;27;20047;-80
2024/01/06 13:24:40;;;;;;;55.63;23.08;;;;;;;;;;5090678;27;20478;-83
2024/01/06 13:27:06;;;;;;;35.95;20.33;;;;;;;;;;5090630;27;20051;-82
2024/01/06 13:29:33;;;;;;;35.00;20.48;;;;;;;;;;5108026;27;20637;-81
2024/01/06 13:31:59;;;;;;;33.30;20.45;;;;;;;;;;5123831;27;20046;-82
2024/01/06 13:34:29;;;;;;;37.10;20.48;;;;;;;;;;5127171;27;20038;-81